joomla templates top joomla templates template joomla

King Air Abend

Notam

C3641/14 - CUSTOMS AVBL PPR, TEL 0049 9561 92098. 13 NOV 14:46 2014 UNTIL PERM. CREATED: 13 NOV 14:47 2014

Aerodrome Terminal Information Service (ATIS) Coburg

METAR
EDQC 252150Z AUTO 08003KT CAVOK 14/13 Q1021=

METAR und TAF der Umgebung

[Quelle: ADDS]
METAR
EDDF 252220Z 31007KT CAVOK 18/13 Q1020 NOSIG =
EDDN 252220Z 12003KT CAVOK 11/10 Q1021 =
EDDE 252220Z 21008KT CAVOK 12/09 Q1020 =
TAF
EDDF 251700Z 2518/2624 17004KT CAVOK BECMG 2521/2523 32005KT BECMG 2604/2608 BKN035 BECMG 2616/2618 02005KT PROB30 TEMPO 2616/2621 SHRA SCT030TCU =
EDDN 251700Z 2518/2618 VRB03KT CAVOK =
EDDE 251700Z 2518/2618 19005KT CAVOK BECMG 2522/2601 25006KT BECMG 2606/2609 31006KT =
SR / SS: 05:11 / 17:05 UTC (EDQC 2016-09-26)

Verkehrslandeplatz Coburg Brandensteinsebene
Tower
Zur Brandensteinsebene
96450 Coburg

AeroClub Logo 200px

Aero Club Coburg e. V.
Postfach 11 09
96401 Coburg